Lavaca, Alabama
Current Conditions -  °F | °C
As of 9:55 AM on Monday 24 Nov 2014 (Local Time) from KDYA Reporting Station
Clear Clear  
Wind Chill: 67°   Ceiling: Unl
Heat Index: 67°   Visibility: 10mi
Dew Point: 49°   Wind: 10mph
Humidity: 52%   Direction: 300°WNW
Pressure: 29.86"   Gusts: NA
Location:  32.0668°N, 88.2133°W
Report Text: KDYA 241555Z AUTO 30009KT 10SM CLR 20/09 A2986 RMK AO2 T01950093
Loading
Personal Weather Stations






























Interactive Weather Map New forecast layout! Learn more

10-Day Weather Forecast

Advertisements
Track Severe Weather on mobile